createdAt,value
2018-08-13T00:00:52.042Z,59.20
2018-08-13T00:03:20.244Z,59.60
2018-08-13T00:05:48.513Z,58.90
2018-08-13T00:08:17.347Z,59.10
2018-08-13T00:10:45.891Z,59.00
2018-08-13T00:13:14.093Z,59.20
2018-08-13T00:15:42.326Z,59.30
2018-08-13T00:18:11.705Z,58.90
2018-08-13T00:20:40.052Z,59.20
2018-08-13T00:23:08.767Z,59.20
2018-08-13T00:25:36.971Z,59.20
2018-08-13T00:28:06.890Z,58.90
2018-08-13T00:30:35.247Z,59.30
2018-08-13T00:33:03.480Z,59.00
2018-08-13T00:35:31.686Z,59.00
2018-08-13T00:37:59.895Z,58.30
2018-08-13T00:40:28.212Z,58.80
2018-08-13T00:42:56.468Z,58.90
2018-08-13T00:45:24.772Z,58.90
2018-08-13T00:47:53.028Z,59.10
2018-08-13T00:50:21.224Z,60.20
2018-08-13T00:52:49.455Z,60.10
2018-08-13T00:55:17.651Z,59.70
2018-08-13T00:57:46.863Z,59.40
2018-08-13T01:00:19.707Z,59.40
2018-08-13T01:02:48.455Z,59.60
2018-08-13T01:05:17.560Z,59.60
2018-08-13T01:07:45.860Z,59.30
2018-08-13T01:10:15.648Z,59.10
2018-08-13T01:12:44.411Z,59.20
2018-08-13T01:15:14.131Z,60.00
2018-08-13T01:17:43.867Z,58.70
2018-08-13T01:20:14.151Z,58.60
2018-08-13T01:22:43.649Z,58.90
2018-08-13T01:25:13.688Z,58.20
2018-08-13T01:27:42.276Z,58.00
2018-08-13T01:30:11.858Z,58.10
2018-08-13T01:32:40.071Z,58.60
2018-08-13T01:35:08.285Z,58.10
2018-08-13T01:37:37.894Z,58.00
2018-08-13T01:40:07.439Z,58.80
2018-08-13T01:42:35.644Z,57.50
2018-08-13T01:45:04.695Z,56.50
2018-08-13T01:47:32.976Z,56.00
2018-08-13T01:50:01.336Z,57.30
2018-08-13T01:52:29.601Z,54.50
2018-08-13T01:54:57.829Z,54.10
2018-08-13T01:57:26.068Z,53.60
2018-08-13T01:59:54.250Z,53.10
2018-08-13T02:02:23.039Z,53.40
2018-08-13T02:04:51.252Z,53.80
2018-08-13T02:07:19.435Z,53.20
2018-08-13T02:09:47.632Z,53.20
2018-08-13T02:12:15.855Z,53.10
2018-08-13T02:14:44.124Z,53.00
2018-08-13T02:17:12.326Z,54.00
2018-08-13T02:19:40.508Z,54.40
2018-08-13T02:22:08.762Z,54.40
2018-08-13T02:24:37.099Z,54.00
2018-08-13T02:27:05.316Z,54.50
2018-08-13T02:29:33.574Z,55.40
2018-08-13T02:32:01.777Z,55.90
2018-08-13T02:34:30.119Z,55.70
2018-08-13T02:36:58.247Z,56.60
2018-08-13T02:39:26.647Z,56.20
2018-08-13T02:41:54.978Z,56.90
2018-08-13T02:44:23.179Z,57.00
2018-08-13T02:46:51.410Z,57.90
2018-08-13T02:49:19.583Z,58.10
2018-08-13T02:51:47.776Z,58.30
2018-08-13T02:54:16.112Z,58.60
2018-08-13T02:56:44.312Z,58.80
2018-08-13T02:59:12.517Z,58.80
2018-08-13T03:01:41.509Z,58.60
2018-08-13T03:04:09.742Z,58.30
2018-08-13T03:06:37.944Z,58.90
2018-08-13T03:09:09.671Z,59.40
2018-08-13T03:11:37.879Z,59.20
2018-08-13T03:14:06.143Z,59.30
2018-08-13T03:16:34.436Z,58.90
2018-08-13T03:19:02.660Z,59.10
2018-08-13T03:21:30.872Z,59.00
2018-08-13T03:23:59.909Z,59.10
2018-08-13T03:26:28.075Z,59.50
2018-08-13T03:28:56.271Z,59.20
2018-08-13T03:31:24.489Z,58.60
2018-08-13T03:33:52.712Z,57.20
2018-08-13T03:36:20.943Z,58.30
2018-08-13T03:38:49.120Z,58.20
2018-08-13T03:41:17.320Z,56.60
2018-08-13T03:43:45.571Z,56.00
2018-08-13T03:46:13.796Z,56.70
2018-08-13T03:48:42.007Z,56.30
2018-08-13T03:51:10.200Z,56.30
2018-08-13T03:53:38.451Z,56.20
2018-08-13T03:56:06.940Z,55.90
2018-08-13T03:58:35.131Z,56.20
2018-08-13T04:01:03.507Z,56.10
2018-08-13T04:03:31.744Z,57.50
2018-08-13T04:05:59.975Z,56.50
2018-08-13T04:08:28.213Z,56.00
2018-08-13T04:10:56.459Z,55.80
2018-08-13T04:13:24.662Z,55.90
2018-08-13T04:15:52.857Z,55.90
2018-08-13T04:18:21.057Z,57.20
2018-08-13T04:20:49.315Z,57.30
2018-08-13T04:23:17.529Z,56.90
2018-08-13T04:25:46.561Z,56.40
2018-08-13T04:28:14.761Z,56.40
2018-08-13T04:30:42.936Z,57.30
2018-08-13T04:33:11.315Z,55.90
2018-08-13T04:35:39.532Z,56.80
2018-08-13T04:38:07.744Z,56.30
2018-08-13T04:40:35.943Z,55.70
2018-08-13T04:43:04.239Z,55.60
2018-08-13T04:45:32.411Z,55.40
2018-08-13T04:48:00.792Z,55.40
2018-08-13T04:50:28.978Z,55.60
2018-08-13T04:52:57.212Z,55.40
2018-08-13T04:55:25.423Z,55.50
2018-08-13T04:57:53.660Z,55.40
2018-08-13T05:00:21.849Z,55.70
2018-08-13T05:02:50.032Z,56.20
2018-08-13T05:05:18.296Z,56.30
2018-08-13T05:07:46.470Z,56.50
2018-08-13T05:10:14.667Z,57.40
2018-08-13T05:12:42.927Z,57.40
2018-08-13T05:15:11.667Z,57.30
2018-08-13T05:17:39.826Z,57.70
2018-08-13T05:20:08.976Z,58.10
2018-08-13T05:22:37.168Z,57.80
2018-08-13T05:25:06.432Z,58.60
2018-08-13T05:27:34.722Z,58.30
2018-08-13T05:30:02.988Z,58.50
2018-08-13T05:32:31.166Z,58.40
2018-08-13T05:34:59.487Z,58.10
2018-08-13T05:37:27.675Z,57.50
2018-08-13T05:39:56.143Z,57.50
2018-08-13T05:42:24.340Z,57.70
2018-08-13T05:44:52.543Z,58.20
2018-08-13T05:47:20.732Z,57.50
2018-08-13T05:49:48.952Z,57.30
2018-08-13T05:52:17.205Z,57.10
2018-08-13T05:54:45.531Z,57.40
2018-08-13T05:57:13.711Z,56.90
2018-08-13T05:59:42.009Z,57.40
2018-08-13T06:02:10.323Z,57.80
2018-08-13T06:04:38.544Z,59.70
2018-08-13T06:07:06.739Z,59.80
2018-08-13T06:09:35.092Z,60.30
2018-08-13T06:12:03.296Z,60.60
2018-08-13T06:14:31.484Z,61.30
2018-08-13T06:16:59.675Z,63.00
2018-08-13T06:19:27.905Z,63.20
2018-08-13T06:21:56.084Z,64.60
2018-08-13T06:24:24.431Z,65.20
2018-08-13T06:26:52.527Z,65.80
2018-08-13T06:29:20.706Z,66.20
2018-08-13T06:31:48.943Z,65.50
2018-08-13T06:34:17.147Z,65.50
2018-08-13T06:36:45.377Z,65.60
2018-08-13T06:39:13.609Z,65.80
2018-08-13T06:41:41.831Z,66.00
2018-08-13T06:44:10.019Z,66.00
2018-08-13T06:46:38.215Z,66.20
2018-08-13T06:49:06.947Z,66.00
2018-08-13T06:51:35.280Z,66.10
2018-08-13T06:54:03.804Z,65.80
2018-08-13T06:56:33.032Z,66.40
2018-08-13T06:59:01.244Z,68.80
2018-08-13T07:01:29.628Z,70.30
2018-08-13T07:03:57.853Z,71.90
2018-08-13T07:06:26.124Z,72.50
2018-08-13T07:08:54.348Z,76.50
2018-08-13T07:11:22.596Z,75.90
2018-08-13T07:13:50.823Z,78.80
2018-08-13T07:16:19.088Z,80.00
2018-08-13T07:18:47.257Z,81.20
2018-08-13T07:21:16.013Z,84.90
2018-08-13T07:23:44.211Z,84.80
2018-08-13T07:26:12.395Z,85.50
2018-08-13T07:28:40.605Z,86.80
2018-08-13T07:31:08.776Z,86.90
2018-08-13T07:33:37.053Z,86.80
2018-08-13T07:36:05.192Z,86.50
2018-08-13T07:38:33.376Z,86.20
2018-08-13T07:41:01.632Z,86.60
2018-08-13T07:43:29.905Z,85.90
2018-08-13T07:45:58.077Z,86.20
2018-08-13T07:48:26.404Z,84.90
2018-08-13T07:50:54.659Z,83.60
2018-08-13T07:53:22.836Z,83.10
2018-08-13T07:55:51.001Z,82.60
2018-08-13T07:58:19.295Z,82.80
2018-08-13T08:00:47.520Z,82.80
2018-08-13T08:03:15.687Z,82.50
2018-08-13T08:05:43.884Z,82.40
2018-08-13T08:08:12.077Z,82.00
2018-08-13T08:10:40.295Z,80.80
2018-08-13T08:13:08.502Z,80.30
2018-08-13T08:15:36.717Z,80.10
2018-08-13T08:18:04.960Z,80.60
2018-08-13T08:20:33.148Z,81.70
2018-08-13T08:23:01.406Z,81.80
2018-08-13T08:25:29.912Z,81.60
2018-08-13T08:27:58.205Z,82.00
2018-08-13T08:30:26.439Z,82.40
2018-08-13T08:32:54.716Z,82.00
2018-08-13T08:35:23.109Z,81.90
2018-08-13T08:37:51.335Z,80.40
2018-08-13T08:40:20.670Z,80.00
2018-08-13T08:42:49.393Z,80.50
2018-08-13T08:45:26.191Z,77.10
2018-08-13T08:47:54.847Z,76.00
2018-08-13T08:50:24.018Z,75.20
2018-08-13T08:52:52.217Z,75.10
2018-08-13T08:55:20.857Z,74.60
2018-08-13T08:57:50.207Z,74.50
2018-08-13T09:00:22.920Z,74.00
2018-08-13T09:02:51.183Z,73.50
2018-08-13T09:05:19.375Z,73.20
2018-08-13T09:07:47.795Z,73.60
2018-08-13T09:10:16.126Z,73.80
2018-08-13T09:12:44.347Z,72.90
2018-08-13T09:15:14.417Z,72.40
2018-08-13T09:17:54.780Z,71.70
2018-08-13T09:20:34.429Z,72.10
2018-08-13T09:23:13.871Z,73.30
2018-08-13T09:25:53.452Z,77.80
2018-08-13T09:28:33.839Z,80.30
2018-08-13T09:31:15.709Z,82.70
2018-08-13T09:33:55.279Z,83.90
2018-08-13T09:36:23.471Z,84.60
2018-08-13T09:38:51.684Z,85.60
2018-08-13T09:41:19.877Z,85.10
2018-08-13T09:43:48.088Z,85.50
2018-08-13T09:46:16.303Z,85.70
2018-08-13T09:48:44.516Z,85.90
2018-08-13T09:51:12.700Z,85.10
2018-08-13T09:53:40.899Z,85.10
2018-08-13T09:56:09.052Z,84.40
2018-08-13T09:58:37.248Z,83.80
2018-08-13T10:01:11.855Z,82.70
2018-08-13T10:03:40.396Z,81.90
2018-08-13T10:06:08.717Z,80.60
2018-08-13T10:08:36.897Z,81.70
2018-08-13T10:11:05.152Z,78.60
2018-08-13T10:13:33.420Z,75.80
2018-08-13T10:16:01.620Z,75.60
2018-08-13T10:18:29.890Z,71.80
2018-08-13T10:20:58.074Z,69.30
2018-08-13T10:23:26.231Z,68.70
2018-08-13T10:25:54.525Z,66.40
2018-08-13T10:28:22.700Z,66.20
2018-08-13T10:30:50.921Z,65.70
2018-08-13T10:33:19.179Z,64.70
2018-08-13T10:35:47.400Z,65.00
2018-08-13T10:38:15.585Z,64.90
2018-08-13T10:40:43.780Z,65.00
2018-08-13T10:43:11.948Z,63.00
2018-08-13T10:45:40.148Z,62.90
2018-08-13T10:48:08.341Z,63.50
2018-08-13T10:50:36.559Z,63.10
2018-08-13T10:53:04.830Z,62.90
2018-08-13T10:55:33.108Z,63.30
2018-08-13T10:58:01.339Z,62.50
2018-08-13T11:00:29.558Z,63.50
2018-08-13T11:02:57.853Z,62.50
2018-08-13T11:05:25.957Z,60.20
2018-08-13T11:07:54.184Z,60.20
2018-08-13T11:10:22.484Z,59.20
2018-08-13T11:12:50.603Z,59.00
2018-08-13T11:15:19.880Z,59.00
2018-08-13T11:17:48.072Z,59.10
2018-08-13T11:20:16.779Z,57.80
2018-08-13T11:22:45.277Z,57.50
2018-08-13T11:25:14.726Z,57.30
2018-08-13T11:27:43.213Z,58.00
2018-08-13T11:30:12.820Z,58.90
2018-08-13T11:32:41.002Z,58.70
2018-08-13T11:35:09.248Z,58.40
2018-08-13T11:37:37.553Z,58.70
2018-08-13T11:40:13.843Z,58.40
2018-08-13T11:42:42.124Z,59.00
2018-08-13T11:45:10.573Z,58.70
2018-08-13T11:47:39.546Z,58.70
2018-08-13T11:50:11.372Z,59.00
2018-08-13T11:52:39.612Z,59.60
2018-08-13T11:55:07.841Z,59.80
2018-08-13T11:57:36.635Z,59.70
2018-08-13T12:00:07.371Z,59.80
2018-08-13T12:02:35.696Z,60.60
2018-08-13T12:05:04.960Z,60.60
2018-08-13T12:07:33.230Z,60.90
2018-08-13T12:10:01.404Z,61.60
2018-08-13T12:12:29.601Z,62.90
2018-08-13T12:14:57.852Z,63.70
2018-08-13T12:17:26.070Z,64.40
2018-08-13T12:19:54.268Z,64.60
2018-08-13T12:22:22.518Z,65.40
2018-08-13T12:24:50.689Z,65.60
2018-08-13T12:27:18.929Z,65.60
2018-08-13T12:29:47.103Z,65.40
2018-08-13T12:32:15.608Z,65.70
2018-08-13T12:34:43.824Z,65.70
2018-08-13T12:37:12.332Z,66.20
2018-08-13T12:39:40.644Z,65.50
2018-08-13T12:42:09.849Z,66.20
2018-08-13T12:44:38.353Z,66.00
2018-08-13T12:47:07.280Z,66.40
2018-08-13T12:49:35.577Z,66.80
2018-08-13T12:52:03.855Z,67.10
2018-08-13T12:54:32.145Z,67.50
2018-08-13T12:57:00.364Z,67.10
2018-08-13T12:59:28.540Z,67.10
2018-08-13T13:01:56.748Z,67.30
2018-08-13T13:04:24.916Z,67.70
2018-08-13T13:06:53.144Z,67.90
2018-08-13T13:09:21.400Z,68.90
2018-08-13T13:11:49.724Z,68.80
2018-08-13T13:14:17.984Z,69.00
2018-08-13T13:16:46.408Z,68.60
2018-08-13T13:19:14.877Z,68.60
2018-08-13T13:21:43.110Z,68.20
2018-08-13T13:24:11.361Z,68.20
2018-08-13T13:26:41.723Z,68.40
2018-08-13T13:29:09.982Z,69.30
2018-08-13T13:31:39.176Z,68.70
2018-08-13T13:34:07.421Z,69.20
2018-08-13T13:36:35.712Z,69.80
2018-08-13T13:39:05.783Z,70.10
2018-08-13T13:41:34.786Z,70.10
2018-08-13T13:44:03.021Z,69.50
2018-08-13T13:46:31.504Z,69.80
2018-08-13T13:48:59.748Z,71.20
2018-08-13T13:51:28.300Z,73.70
2018-08-13T13:53:56.694Z,76.50
2018-08-13T13:56:24.956Z,77.80
2018-08-13T13:58:53.218Z,79.40
2018-08-13T14:01:22.161Z,80.90
2018-08-13T14:03:50.397Z,80.70
2018-08-13T14:06:18.610Z,80.10
2018-08-13T14:08:46.836Z,79.40
2018-08-13T14:11:15.091Z,79.70
2018-08-13T14:13:44.216Z,80.20
2018-08-13T14:16:12.435Z,79.90
2018-08-13T14:18:40.708Z,80.70
2018-08-13T14:21:08.931Z,79.10
2018-08-13T14:23:37.240Z,79.20
2018-08-13T14:26:05.463Z,78.40
2018-08-13T14:28:33.717Z,78.60
2018-08-13T14:31:01.924Z,76.10
2018-08-13T14:33:30.679Z,73.70
2018-08-13T14:35:58.881Z,72.10
2018-08-13T14:38:27.084Z,73.20
2018-08-13T14:40:55.329Z,69.90
2018-08-13T14:43:23.556Z,69.00
2018-08-13T14:45:51.780Z,68.10
2018-08-13T14:48:19.997Z,68.40
2018-08-13T14:50:48.244Z,68.60
2018-08-13T14:53:16.485Z,69.20
2018-08-13T14:55:46.451Z,69.50
2018-08-13T14:58:14.666Z,69.60
2018-08-13T15:00:42.973Z,70.20
2018-08-13T15:03:12.226Z,69.90
2018-08-13T15:05:40.860Z,70.20
2018-08-13T15:08:09.089Z,71.60
2018-08-13T15:10:37.321Z,71.80
2018-08-13T15:13:05.625Z,74.60
2018-08-13T15:15:33.916Z,78.30
2018-08-13T15:18:02.184Z,80.00
2018-08-13T15:20:31.254Z,80.90
2018-08-13T15:22:59.532Z,80.80
2018-08-13T15:25:28.360Z,81.60
2018-08-13T15:27:56.693Z,82.40
2018-08-13T15:30:25.548Z,83.00
2018-08-13T15:32:54.184Z,83.00
2018-08-13T15:35:22.433Z,82.90
2018-08-13T15:37:51.122Z,84.10
2018-08-13T15:40:19.625Z,84.40
2018-08-13T15:42:47.903Z,83.90
2018-08-13T15:45:20.285Z,84.20
2018-08-13T15:47:48.968Z,83.90
2018-08-13T15:50:18.488Z,83.60
2018-08-13T15:52:47.282Z,82.50
2018-08-13T15:55:15.636Z,82.70
2018-08-13T15:57:44.415Z,81.80
2018-08-13T16:00:16.864Z,82.20
2018-08-13T16:02:45.076Z,82.20
2018-08-13T16:05:13.323Z,82.00
2018-08-13T16:07:41.743Z,81.90
2018-08-13T16:10:12.456Z,81.40
2018-08-13T16:12:41.031Z,80.20
2018-08-13T16:15:09.452Z,80.00
2018-08-13T16:17:38.329Z,80.30
2018-08-13T16:20:11.500Z,80.60
2018-08-13T16:22:39.775Z,82.50
2018-08-13T16:25:08.702Z,81.60
2018-08-13T16:27:37.647Z,81.60
2018-08-13T16:30:12.571Z,82.20
2018-08-13T16:32:40.812Z,82.20
2018-08-13T16:35:09.036Z,82.50
2018-08-13T16:37:37.311Z,82.60
2018-08-13T16:40:05.590Z,82.50
2018-08-13T16:42:33.859Z,82.80
2018-08-13T16:45:02.146Z,82.20
2018-08-13T16:47:30.349Z,82.50
2018-08-13T16:49:58.696Z,80.80
2018-08-13T16:52:26.958Z,80.80
2018-08-13T16:54:55.272Z,80.70
2018-08-13T16:57:23.536Z,80.30
2018-08-13T16:59:51.735Z,80.40
2018-08-13T17:02:19.981Z,80.50
2018-08-13T17:04:48.248Z,81.00
2018-08-13T17:07:16.563Z,81.20
2018-08-13T17:09:44.819Z,81.30
2018-08-13T17:12:13.100Z,82.10
2018-08-13T17:14:41.394Z,81.70
2018-08-13T17:17:09.656Z,81.70
2018-08-13T17:19:37.925Z,82.20
2018-08-13T17:22:06.596Z,82.70
2018-08-13T17:24:34.887Z,84.00
2018-08-13T17:27:03.110Z,85.80
2018-08-13T17:29:31.317Z,86.40
2018-08-13T17:31:59.639Z,86.00
2018-08-13T17:34:27.889Z,87.90
2018-08-13T17:36:56.192Z,86.70
2018-08-13T17:39:24.432Z,86.30
2018-08-13T17:41:52.727Z,85.60
2018-08-13T17:44:20.991Z,84.70
2018-08-13T17:46:49.181Z,85.00
2018-08-13T17:49:17.440Z,84.40
2018-08-13T17:51:45.624Z,85.40
2018-08-13T17:54:13.809Z,84.60
2018-08-13T17:56:42.172Z,84.80
2018-08-13T17:59:10.438Z,85.80
2018-08-13T18:01:38.713Z,86.20
2018-08-13T18:04:07.016Z,86.50
2018-08-13T18:06:35.333Z,87.00
2018-08-13T18:09:04.068Z,87.50
2018-08-13T18:11:32.399Z,87.70
2018-08-13T18:14:00.865Z,87.70
2018-08-13T18:16:29.128Z,88.40
2018-08-13T18:18:57.379Z,88.30
2018-08-13T18:21:25.598Z,88.50
2018-08-13T18:23:53.784Z,88.50
2018-08-13T18:26:22.059Z,89.10
2018-08-13T18:28:50.272Z,88.20
2018-08-13T18:31:18.467Z,88.20
2018-08-13T18:33:46.701Z,88.10
2018-08-13T18:36:15.006Z,87.80
2018-08-13T18:38:43.257Z,87.90
2018-08-13T18:41:11.645Z,88.10
2018-08-13T18:43:39.855Z,87.70
2018-08-13T18:46:08.144Z,87.50
2018-08-13T18:48:36.364Z,87.90
2018-08-13T18:51:04.597Z,88.00
2018-08-13T18:53:32.854Z,88.20
2018-08-13T18:56:01.054Z,88.00
2018-08-13T18:58:29.291Z,88.00
2018-08-13T19:00:57.505Z,88.00
2018-08-13T19:03:25.741Z,87.60
2018-08-13T19:05:53.935Z,87.80
2018-08-13T19:08:22.148Z,87.80
2018-08-13T19:10:50.367Z,88.10
2018-08-13T19:13:18.597Z,88.30
2018-08-13T19:15:46.792Z,88.30
2018-08-13T19:18:15.087Z,87.50
2018-08-13T19:20:43.224Z,85.90
2018-08-13T19:23:11.424Z,87.50
2018-08-13T19:25:39.672Z,87.90
2018-08-13T19:28:07.875Z,89.30
2018-08-13T19:30:36.136Z,90.10
2018-08-13T19:33:04.481Z,90.80
2018-08-13T19:35:33.695Z,91.30
2018-08-13T19:38:01.900Z,91.70
2018-08-13T19:40:30.167Z,91.60
2018-08-13T19:42:58.409Z,91.80
2018-08-13T19:45:26.665Z,91.70
2018-08-13T19:47:54.940Z,92.10
2018-08-13T19:50:23.148Z,92.40
2018-08-13T19:52:51.656Z,92.50
2018-08-13T19:55:20.419Z,92.90
2018-08-13T19:57:48.616Z,92.90
2018-08-13T20:00:21.171Z,92.90
2018-08-13T20:02:49.761Z,93.50
2018-08-13T20:05:19.076Z,93.30
2018-08-13T20:07:47.249Z,93.60
2018-08-13T20:10:16.137Z,93.70
2018-08-13T20:12:45.236Z,93.60
2018-08-13T20:15:13.520Z,93.60
2018-08-13T20:17:41.845Z,93.70
2018-08-13T20:20:11.781Z,93.70
2018-08-13T20:22:40.059Z,93.60
2018-08-13T20:25:10.096Z,93.90
2018-08-13T20:27:38.620Z,93.70
2018-08-13T20:30:08.948Z,94.20
2018-08-13T20:32:37.163Z,94.10
2018-08-13T20:35:05.375Z,94.20
2018-08-13T20:37:33.591Z,94.30
2018-08-13T20:40:01.824Z,94.30
2018-08-13T20:42:30.025Z,94.20
2018-08-13T20:44:58.381Z,94.60
2018-08-13T20:47:26.691Z,94.50
2018-08-13T20:49:54.945Z,94.60
2018-08-13T20:52:23.191Z,94.80
2018-08-13T20:54:51.448Z,94.90
2018-08-13T20:57:19.707Z,94.80
2018-08-13T20:59:47.947Z,94.90
2018-08-13T21:02:16.172Z,95.00
2018-08-13T21:04:44.372Z,95.10
2018-08-13T21:07:12.832Z,95.00
2018-08-13T21:09:41.069Z,95.10
2018-08-13T21:12:09.269Z,95.20
2018-08-13T21:14:37.471Z,95.30
2018-08-13T21:17:05.696Z,95.20
2018-08-13T21:19:33.907Z,95.20
2018-08-13T21:22:02.136Z,95.20
2018-08-13T21:24:30.375Z,95.50
2018-08-13T21:26:58.619Z,95.50
2018-08-13T21:29:27.143Z,95.50
2018-08-13T21:31:55.341Z,95.40
2018-08-13T21:34:23.535Z,95.50
2018-08-13T21:36:51.736Z,95.40
2018-08-13T21:39:20.143Z,95.40
2018-08-13T21:41:48.332Z,95.40
2018-08-13T21:44:16.663Z,95.50
2018-08-13T21:46:44.939Z,95.50
2018-08-13T21:49:13.135Z,95.40
2018-08-13T21:51:41.313Z,95.30
2018-08-13T21:54:09.503Z,95.50
2018-08-13T21:56:37.663Z,95.60
2018-08-13T21:59:05.915Z,95.40
2018-08-13T22:01:39.285Z,95.50
2018-08-13T22:04:07.505Z,95.40
2018-08-13T22:06:36.089Z,95.50
2018-08-13T22:09:05.985Z,95.30
2018-08-13T22:11:34.279Z,95.40
2018-08-13T22:14:02.660Z,95.30
2018-08-13T22:16:30.953Z,95.30
2018-08-13T22:18:59.159Z,95.00
2018-08-13T22:21:27.486Z,95.20
2018-08-13T22:24:07.088Z,95.20
2018-08-13T22:26:35.291Z,95.30
2018-08-13T22:29:03.571Z,95.20
2018-08-13T22:31:31.812Z,95.00
2018-08-13T22:34:00.766Z,95.20
2018-08-13T22:36:29.026Z,95.00
2018-08-13T22:38:57.232Z,95.00
2018-08-13T22:41:25.479Z,95.00
2018-08-13T22:43:53.665Z,95.00
2018-08-13T22:46:22.555Z,95.10
2018-08-13T22:48:50.748Z,95.00
2018-08-13T22:51:18.985Z,95.20
2018-08-13T22:53:47.232Z,95.10
2018-08-13T22:56:15.558Z,95.20
2018-08-13T22:58:43.896Z,95.40
2018-08-13T23:01:12.200Z,95.30
2018-08-13T23:03:40.384Z,95.60
2018-08-13T23:06:08.609Z,95.40
2018-08-13T23:08:37.732Z,95.30
2018-08-13T23:11:05.870Z,95.40
2018-08-13T23:13:34.068Z,95.30
2018-08-13T23:16:02.367Z,95.30
2018-08-13T23:18:30.576Z,95.10
2018-08-13T23:20:58.816Z,95.10
2018-08-13T23:23:27.260Z,95.10
2018-08-13T23:25:55.535Z,95.50
2018-08-13T23:28:23.788Z,95.40
2018-08-13T23:30:52.044Z,95.40
2018-08-13T23:33:20.235Z,95.10
2018-08-13T23:35:48.447Z,95.20
2018-08-13T23:38:16.872Z,95.30
2018-08-13T23:40:45.144Z,95.30
2018-08-13T23:43:13.364Z,95.30
2018-08-13T23:45:41.595Z,95.10
2018-08-13T23:48:09.832Z,95.20
2018-08-13T23:50:38.065Z,95.20
2018-08-13T23:53:06.367Z,95.10
2018-08-13T23:55:38.124Z,95.20
2018-08-13T23:58:09.262Z,95.30
